sensor_id;sensor_type;location;lat;lon;timestamp;pressure;altitude;pressure_sealevel;temperature;humidity
25080;BME280;13071;48.868;9.996;2023-04-04T00:01:35;97322.66;;;-0.88;72.97
25080;BME280;13071;48.868;9.996;2023-04-04T00:04:01;97309.31;;;-0.76;73.30
25080;BME280;13071;48.868;9.996;2023-04-04T00:06:28;97307.13;;;-0.79;73.79
25080;BME280;13071;48.868;9.996;2023-04-04T00:08:55;97307.69;;;-0.77;72.35
25080;BME280;13071;48.868;9.996;2023-04-04T00:11:23;97302.88;;;-0.80;72.73
25080;BME280;13071;48.868;9.996;2023-04-04T00:13:50;97298.50;;;-0.87;73.28
25080;BME280;13071;48.868;9.996;2023-04-04T00:16:16;97299.63;;;-0.99;73.47
25080;BME280;13071;48.868;9.996;2023-04-04T00:18:43;97291.56;;;-1.04;73.18
25080;BME280;13071;48.868;9.996;2023-04-04T00:21:10;97298.75;;;-1.05;73.50
25080;BME280;13071;48.868;9.996;2023-04-04T00:23:36;97301.31;;;-0.93;72.98
25080;BME280;13071;48.868;9.996;2023-04-04T00:26:03;97299.19;;;-1.08;73.26
25080;BME280;13071;48.868;9.996;2023-04-04T00:28:31;97298.88;;;-1.11;73.89
25080;BME280;13071;48.868;9.996;2023-04-04T00:30:59;97287.75;;;-1.08;73.29
25080;BME280;13071;48.868;9.996;2023-04-04T00:33:26;97290.19;;;-1.07;73.37
25080;BME280;13071;48.868;9.996;2023-04-04T00:35:53;97283.50;;;-0.93;72.69
25080;BME280;13071;48.868;9.996;2023-04-04T00:38:19;97281.03;;;-0.99;73.34
25080;BME280;13071;48.868;9.996;2023-04-04T00:40:48;97279.66;;;-1.02;73.48
25080;BME280;13071;48.868;9.996;2023-04-04T00:43:17;97283.84;;;-1.06;73.73
25080;BME280;13071;48.868;9.996;2023-04-04T00:45:45;97276.41;;;-1.20;74.53
25080;BME280;13071;48.868;9.996;2023-04-04T00:48:12;97280.69;;;-1.19;74.17
25080;BME280;13071;48.868;9.996;2023-04-04T00:50:39;97272.81;;;-1.14;74.10
25080;BME280;13071;48.868;9.996;2023-04-04T00:53:05;97270.16;;;-1.14;74.62
25080;BME280;13071;48.868;9.996;2023-04-04T00:55:32;97267.00;;;-1.11;73.75
25080;BME280;13071;48.868;9.996;2023-04-04T00:57:59;97269.22;;;-1.37;74.83
25080;BME280;13071;48.868;9.996;2023-04-04T01:00:26;97271.97;;;-1.60;75.47
25080;BME280;13071;48.868;9.996;2023-04-04T01:02:54;97268.50;;;-1.32;74.89
25080;BME280;13071;48.868;9.996;2023-04-04T01:05:21;97268.50;;;-1.32;75.20
25080;BME280;13071;48.868;9.996;2023-04-04T01:07:48;97268.25;;;-1.31;75.06
25080;BME280;13071;48.868;9.996;2023-04-04T01:10:14;97266.41;;;-1.30;74.99
25080;BME280;13071;48.868;9.996;2023-04-04T01:12:41;97257.28;;;-1.51;75.92
25080;BME280;13071;48.868;9.996;2023-04-04T01:15:09;97258.66;;;-1.48;76.30
25080;BME280;13071;48.868;9.996;2023-04-04T01:17:36;97255.75;;;-1.47;75.76
25080;BME280;13071;48.868;9.996;2023-04-04T01:20:06;97254.72;;;-1.46;75.44
25080;BME280;13071;48.868;9.996;2023-04-04T01:22:38;97249.97;;;-1.44;75.47
25080;BME280;13071;48.868;9.996;2023-04-04T01:25:06;97257.03;;;-1.49;75.78
25080;BME280;13071;48.868;9.996;2023-04-04T01:27:34;97247.28;;;-1.60;75.77
25080;BME280;13071;48.868;9.996;2023-04-04T01:30:01;97252.06;;;-1.74;76.94
25080;BME280;13071;48.868;9.996;2023-04-04T01:32:32;97249.97;;;-1.72;76.97
25080;BME280;13071;48.868;9.996;2023-04-04T01:35:12;97242.28;;;-1.57;76.67
25080;BME280;13071;48.868;9.996;2023-04-04T01:37:49;97236.53;;;-1.54;76.55
25080;BME280;13071;48.868;9.996;2023-04-04T01:40:23;97244.38;;;-1.59;76.00
25080;BME280;13071;48.868;9.996;2023-04-04T01:42:52;97238.59;;;-1.56;75.56
25080;BME280;13071;48.868;9.996;2023-04-04T01:45:20;97245.72;;;-1.73;76.21
25080;BME280;13071;48.868;9.996;2023-04-04T01:47:48;97244.34;;;-1.87;77.41
25080;BME280;13071;48.868;9.996;2023-04-04T01:50:15;97246.97;;;-1.76;76.72
25080;BME280;13071;48.868;9.996;2023-04-04T01:52:41;97247.72;;;-1.92;77.58
25080;BME280;13071;48.868;9.996;2023-04-04T01:55:08;97246.41;;;-1.78;77.18
25080;BME280;13071;48.868;9.996;2023-04-04T01:57:35;97242.19;;;-1.62;76.38
25080;BME280;13071;48.868;9.996;2023-04-04T02:00:04;97246.13;;;-1.64;76.12
25080;BME280;13071;48.868;9.996;2023-04-04T02:02:31;97244.31;;;-1.64;76.17
25080;BME280;13071;48.868;9.996;2023-04-04T02:04:58;97244.34;;;-1.76;75.81
25080;BME280;13071;48.868;9.996;2023-04-04T02:07:24;97245.25;;;-1.70;75.90
25080;BME280;13071;48.868;9.996;2023-04-04T02:09:51;97242.91;;;-1.66;75.31
25080;BME280;13071;48.868;9.996;2023-04-04T02:12:18;97248.31;;;-1.61;75.20
25080;BME280;13071;48.868;9.996;2023-04-04T02:14:44;97245.38;;;-1.77;75.87
25080;BME280;13071;48.868;9.996;2023-04-04T02:17:12;97246.66;;;-1.79;75.81
25080;BME280;13071;48.868;9.996;2023-04-04T02:19:39;97248.28;;;-1.78;76.41
25080;BME280;13071;48.868;9.996;2023-04-04T02:22:06;97238.94;;;-1.81;75.75
25080;BME280;13071;48.868;9.996;2023-04-04T02:24:32;97244.13;;;-1.86;76.30
25080;BME280;13071;48.868;9.996;2023-04-04T02:26:59;97244.00;;;-1.79;76.10
25080;BME280;13071;48.868;9.996;2023-04-04T02:29:25;97249.53;;;-1.81;76.08
25080;BME280;13071;48.868;9.996;2023-04-04T02:31:52;97238.41;;;-1.94;76.42
25080;BME280;13071;48.868;9.996;2023-04-04T02:34:20;97242.63;;;-1.82;75.30
25080;BME280;13071;48.868;9.996;2023-04-04T02:36:47;97246.34;;;-1.83;75.32
25080;BME280;13071;48.868;9.996;2023-04-04T02:39:14;97239.88;;;-1.87;75.27
25080;BME280;13071;48.868;9.996;2023-04-04T02:41:40;97237.22;;;-1.87;75.63
25080;BME280;13071;48.868;9.996;2023-04-04T02:44:07;97238.03;;;-1.86;74.70
25080;BME280;13071;48.868;9.996;2023-04-04T02:46:34;97239.31;;;-1.89;75.48
25080;BME280;13071;48.868;9.996;2023-04-04T02:49:01;97236.31;;;-1.92;75.75
25080;BME280;13071;48.868;9.996;2023-04-04T02:51:29;97236.19;;;-1.97;75.67
25080;BME280;13071;48.868;9.996;2023-04-04T02:53:57;97235.38;;;-1.86;74.74
25080;BME280;13071;48.868;9.996;2023-04-04T02:56:24;97237.06;;;-2.08;75.09
25080;BME280;13071;48.868;9.996;2023-04-04T02:58:50;97231.75;;;-2.08;74.56
25080;BME280;13071;48.868;9.996;2023-04-04T03:01:17;97236.59;;;-2.05;74.45
25080;BME280;13071;48.868;9.996;2023-04-04T03:03:44;97241.03;;;-2.23;75.10
25080;BME280;13071;48.868;9.996;2023-04-04T03:06:10;97232.66;;;-2.03;74.31
25080;BME280;13071;48.868;9.996;2023-04-04T03:08:40;97236.38;;;-2.15;74.91
25080;BME280;13071;48.868;9.996;2023-04-04T03:11:07;97237.31;;;-2.22;75.33
25080;BME280;13071;48.868;9.996;2023-04-04T03:13:33;97230.81;;;-2.02;74.53
25080;BME280;13071;48.868;9.996;2023-04-04T03:16:01;97236.59;;;-2.05;74.86
25080;BME280;13071;48.868;9.996;2023-04-04T03:18:31;97241.44;;;-2.14;75.35
25080;BME280;13071;48.868;9.996;2023-04-04T03:20:58;97234.84;;;-2.00;74.61
25080;BME280;13071;48.868;9.996;2023-04-04T03:23:25;97233.94;;;-2.05;74.43
25080;BME280;13071;48.868;9.996;2023-04-04T03:25:53;97239.03;;;-2.15;75.27
25080;BME280;13071;48.868;9.996;2023-04-04T03:28:20;97242.81;;;-2.11;75.56
25080;BME280;13071;48.868;9.996;2023-04-04T03:30:47;97238.00;;;-2.14;75.07
25080;BME280;13071;48.868;9.996;2023-04-04T03:33:14;97234.53;;;-2.15;75.87
25080;BME280;13071;48.868;9.996;2023-04-04T03:35:41;97229.00;;;-2.13;75.52
25080;BME280;13071;48.868;9.996;2023-04-04T03:38:07;97238.69;;;-2.19;75.77
25080;BME280;13071;48.868;9.996;2023-04-04T03:40:34;97231.88;;;-2.15;75.17
25080;BME280;13071;48.868;9.996;2023-04-04T03:43:05;97227.72;;;-2.11;75.19
25080;BME280;13071;48.868;9.996;2023-04-04T03:45:32;97234.91;;;-2.23;75.39
25080;BME280;13071;48.868;9.996;2023-04-04T03:48:00;97236.16;;;-2.26;75.99
25080;BME280;13071;48.868;9.996;2023-04-04T03:50:26;97234.81;;;-2.28;75.95
25080;BME280;13071;48.868;9.996;2023-04-04T03:52:53;97229.63;;;-2.35;75.84
25080;BME280;13071;48.868;9.996;2023-04-04T03:55:20;97232.97;;;-2.39;76.51
25080;BME280;13071;48.868;9.996;2023-04-04T03:57:46;97236.09;;;-2.42;76.83
25080;BME280;13071;48.868;9.996;2023-04-04T04:00:14;97232.81;;;-2.21;75.24
25080;BME280;13071;48.868;9.996;2023-04-04T04:02:41;97231.22;;;-2.34;75.70
25080;BME280;13071;48.868;9.996;2023-04-04T04:05:08;97229.72;;;-2.30;75.56
25080;BME280;13071;48.868;9.996;2023-04-04T04:07:34;97230.75;;;-2.19;74.49
25080;BME280;13071;48.868;9.996;2023-04-04T04:10:01;97232.59;;;-2.20;74.76
25080;BME280;13071;48.868;9.996;2023-04-04T04:12:28;97226.94;;;-2.23;74.79
25080;BME280;13071;48.868;9.996;2023-04-04T04:14:54;97225.94;;;-2.34;74.79
25080;BME280;13071;48.868;9.996;2023-04-04T04:17:22;97231.13;;;-2.27;74.95
25080;BME280;13071;48.868;9.996;2023-04-04T04:19:49;97229.59;;;-2.23;74.57
25080;BME280;13071;48.868;9.996;2023-04-04T04:22:15;97231.44;;;-2.24;74.36
25080;BME280;13071;48.868;9.996;2023-04-04T04:24:42;97230.63;;;-2.24;74.34
25080;BME280;13071;48.868;9.996;2023-04-04T04:27:09;97226.94;;;-2.23;75.12
25080;BME280;13071;48.868;9.996;2023-04-04T04:29:35;97227.75;;;-2.23;74.66
25080;BME280;13071;48.868;9.996;2023-04-04T04:32:02;97231.13;;;-2.27;74.57
25080;BME280;13071;48.868;9.996;2023-04-04T04:34:30;97233.16;;;-2.17;74.51
25080;BME280;13071;48.868;9.996;2023-04-04T04:36:56;97224.75;;;-2.26;74.76
25080;BME280;13071;48.868;9.996;2023-04-04T04:39:23;97232.47;;;-2.25;74.88
25080;BME280;13071;48.868;9.996;2023-04-04T04:41:50;97231.28;;;-2.17;74.86
25080;BME280;13071;48.868;9.996;2023-04-04T04:44:17;97223.41;;;-2.40;75.66
25080;BME280;13071;48.868;9.996;2023-04-04T04:46:44;97232.25;;;-2.35;75.64
25080;BME280;13071;48.868;9.996;2023-04-04T04:49:10;97226.97;;;-2.35;75.03
25080;BME280;13071;48.868;9.996;2023-04-04T04:51:38;97235.47;;;-2.21;75.21
25080;BME280;13071;48.868;9.996;2023-04-04T04:54:06;97229.44;;;-2.17;74.12
25080;BME280;13071;48.868;9.996;2023-04-04T04:56:33;97234.53;;;-2.15;74.93
25080;BME280;13071;48.868;9.996;2023-04-04T04:58:59;97230.72;;;-2.07;74.67
25080;BME280;13071;48.868;9.996;2023-04-04T05:01:26;97231.47;;;-1.95;74.79
25080;BME280;13071;48.868;9.996;2023-04-04T05:03:53;97230.44;;;-1.94;75.43
25080;BME280;13071;48.868;9.996;2023-04-04T05:06:19;97245.81;;;-1.68;75.17
25080;BME280;13071;48.868;9.996;2023-04-04T05:08:47;97242.53;;;-1.30;73.84
25080;BME280;13071;48.868;9.996;2023-04-04T05:11:14;97240.03;;;-1.03;73.11
25080;BME280;13071;48.868;9.996;2023-04-04T05:13:40;97236.88;;;-0.50;71.99
25080;BME280;13071;48.868;9.996;2023-04-04T05:16:07;97227.56;;;0.13;70.08
25080;BME280;13071;48.868;9.996;2023-04-04T05:18:34;97238.22;;;0.88;68.42
25080;BME280;13071;48.868;9.996;2023-04-04T05:21:01;97245.75;;;1.28;65.73
25080;BME280;13071;48.868;9.996;2023-04-04T05:23:28;97250.72;;;1.56;63.81
25080;BME280;13071;48.868;9.996;2023-04-04T05:25:55;97248.91;;;1.62;62.22
25080;BME280;13071;48.868;9.996;2023-04-04T05:28:22;97246.84;;;1.79;62.53
25080;BME280;13071;48.868;9.996;2023-04-04T05:30:49;97242.78;;;2.18;61.39
25080;BME280;13071;48.868;9.996;2023-04-04T05:33:15;97238.50;;;2.17;60.04
25080;BME280;13071;48.868;9.996;2023-04-04T05:35:42;97241.91;;;2.08;60.84
25080;BME280;13071;48.868;9.996;2023-04-04T05:38:08;97234.59;;;2.45;60.33
25080;BME280;13071;48.868;9.996;2023-04-04T05:40:35;97234.38;;;2.67;59.77
25080;BME280;13071;48.868;9.996;2023-04-04T05:43:03;97237.34;;;2.76;59.89
25080;BME280;13071;48.868;9.996;2023-04-04T05:45:30;97236.81;;;2.94;59.58
25080;BME280;13071;48.868;9.996;2023-04-04T05:47:56;97236.00;;;2.83;59.08
25080;BME280;13071;48.868;9.996;2023-04-04T05:50:23;97232.53;;;3.03;59.37
25080;BME280;13071;48.868;9.996;2023-04-04T05:52:52;97236.56;;;2.95;59.29
25080;BME280;13071;48.868;9.996;2023-04-04T05:55:19;97232.53;;;2.83;59.46
25080;BME280;13071;48.868;9.996;2023-04-04T05:57:46;97237.50;;;2.39;59.41
25080;BME280;13071;48.868;9.996;2023-04-04T06:00:16;97249.22;;;2.33;60.48
25080;BME280;13071;48.868;9.996;2023-04-04T06:02:42;97255.19;;;1.93;61.77
25080;BME280;13071;48.868;9.996;2023-04-04T06:05:10;97252.75;;;1.81;62.13
25080;BME280;13071;48.868;9.996;2023-04-04T06:07:36;97242.50;;;1.68;62.64
25080;BME280;13071;48.868;9.996;2023-04-04T06:10:04;97250.06;;;1.39;63.58
25080;BME280;13071;48.868;9.996;2023-04-04T06:12:31;97251.44;;;0.78;63.77
25080;BME280;13071;48.868;9.996;2023-04-04T06:14:58;97254.47;;;0.65;65.32
25080;BME280;13071;48.868;9.996;2023-04-04T06:17:26;97249.97;;;0.38;64.89
25080;BME280;13071;48.868;9.996;2023-04-04T06:19:52;97256.94;;;0.44;64.66
25080;BME280;13071;48.868;9.996;2023-04-04T06:22:19;97253.66;;;0.59;64.28
25080;BME280;13071;48.868;9.996;2023-04-04T06:24:46;97245.53;;;0.76;63.95
25080;BME280;13071;48.868;9.996;2023-04-04T06:27:12;97244.31;;;0.83;63.92
25080;BME280;13071;48.868;9.996;2023-04-04T06:29:39;97257.66;;;0.89;64.10
25080;BME280;13071;48.868;9.996;2023-04-04T06:32:07;97251.06;;;0.96;64.62
25080;BME280;13071;48.868;9.996;2023-04-04T06:34:35;97248.59;;;0.90;64.57
25080;BME280;13071;48.868;9.996;2023-04-04T06:37:02;97245.06;;;1.11;63.84
25080;BME280;13071;48.868;9.996;2023-04-04T06:39:28;97244.75;;;1.07;63.54
25080;BME280;13071;48.868;9.996;2023-04-04T06:41:55;97253.06;;;0.79;65.33
25080;BME280;13071;48.868;9.996;2023-04-04T06:44:22;97249.38;;;1.17;64.69
25080;BME280;13071;48.868;9.996;2023-04-04T06:46:50;97253.78;;;0.74;64.51
25080;BME280;13071;48.868;9.996;2023-04-04T06:49:16;97236.44;;;0.99;64.28
25080;BME280;13071;48.868;9.996;2023-04-04T06:51:44;97235.63;;;0.98;64.23
25080;BME280;13071;48.868;9.996;2023-04-04T06:54:14;97243.63;;;0.98;63.62
25080;BME280;13071;48.868;9.996;2023-04-04T06:56:41;97246.19;;;1.20;63.77
25080;BME280;13071;48.868;9.996;2023-04-04T06:59:08;97253.06;;;1.11;63.09
25080;BME280;13071;48.868;9.996;2023-04-04T07:01:36;97252.84;;;1.17;62.25
25080;BME280;13071;48.868;9.996;2023-04-04T07:04:02;97249.13;;;1.18;63.33
25080;BME280;13071;48.868;9.996;2023-04-04T07:06:29;97247.97;;;1.41;63.89
25080;BME280;13071;48.868;9.996;2023-04-04T07:08:57;97249.47;;;1.27;62.67
25080;BME280;13071;48.868;9.996;2023-04-04T07:11:24;97240.47;;;1.38;61.57
25080;BME280;13071;48.868;9.996;2023-04-04T07:13:51;97243.44;;;1.42;62.18
25080;BME280;13071;48.868;9.996;2023-04-04T07:16:17;97244.41;;;1.30;61.54
25080;BME280;13071;48.868;9.996;2023-04-04T07:18:44;97251.47;;;1.47;61.86
25080;BME280;13071;48.868;9.996;2023-04-04T07:21:10;97255.78;;;1.53;60.83
25080;BME280;13071;48.868;9.996;2023-04-04T07:23:37;97254.41;;;1.50;61.24
25080;BME280;13071;48.868;9.996;2023-04-04T07:26:05;97253.56;;;1.82;62.16
25080;BME280;13071;48.868;9.996;2023-04-04T07:28:32;97259.91;;;1.76;60.12
25080;BME280;13071;48.868;9.996;2023-04-04T07:30:58;97262.00;;;1.68;60.45
25080;BME280;13071;48.868;9.996;2023-04-04T07:33:26;97256.34;;;1.60;59.70
25080;BME280;13071;48.868;9.996;2023-04-04T07:35:52;97260.28;;;1.94;60.48
25080;BME280;13071;48.868;9.996;2023-04-04T07:38:19;97257.13;;;2.07;60.60
25080;BME280;13071;48.868;9.996;2023-04-04T07:40:47;97261.38;;;1.98;59.20
25080;BME280;13071;48.868;9.996;2023-04-04T07:43:15;97255.47;;;1.91;58.99
25080;BME280;13071;48.868;9.996;2023-04-04T07:45:42;97253.66;;;2.02;57.88
25080;BME280;13071;48.868;9.996;2023-04-04T07:48:08;97265.91;;;1.98;58.97
25080;BME280;13071;48.868;9.996;2023-04-04T07:50:35;97272.66;;;2.10;58.00
25080;BME280;13071;48.868;9.996;2023-04-04T07:53:01;97257.44;;;2.11;58.44
25080;BME280;13071;48.868;9.996;2023-04-04T07:55:28;97262.28;;;2.19;59.30
25080;BME280;13071;48.868;9.996;2023-04-04T07:57:55;97262.56;;;2.28;58.49
25080;BME280;13071;48.868;9.996;2023-04-04T08:00:24;97256.47;;;2.37;56.95
25080;BME280;13071;48.868;9.996;2023-04-04T08:02:51;97265.50;;;2.21;56.88
25080;BME280;13071;48.868;9.996;2023-04-04T08:05:18;97262.38;;;2.49;58.33
25080;BME280;13071;48.868;9.996;2023-04-04T08:07:45;97263.72;;;2.52;58.83
25080;BME280;13071;48.868;9.996;2023-04-04T08:10:12;97266.75;;;2.08;57.13
25080;BME280;13071;48.868;9.996;2023-04-04T08:12:41;97254.31;;;2.29;57.76
25080;BME280;13071;48.868;9.996;2023-04-04T08:15:09;97264.28;;;2.59;58.40
25080;BME280;13071;48.868;9.996;2023-04-04T08:17:37;97249.34;;;2.73;58.00
25080;BME280;13071;48.868;9.996;2023-04-04T08:20:04;97255.28;;;2.90;56.25
25080;BME280;13071;48.868;9.996;2023-04-04T08:22:32;97249.94;;;2.90;57.70
25080;BME280;13071;48.868;9.996;2023-04-04T08:24:58;97248.03;;;2.76;54.63
25080;BME280;13071;48.868;9.996;2023-04-04T08:27:25;97252.59;;;2.90;54.76
25080;BME280;13071;48.868;9.996;2023-04-04T08:29:52;97244.81;;;2.79;55.70
25080;BME280;13071;48.868;9.996;2023-04-04T08:32:19;97253.94;;;3.03;56.18
25080;BME280;13071;48.868;9.996;2023-04-04T08:34:48;97254.19;;;2.96;54.75
25080;BME280;13071;48.868;9.996;2023-04-04T08:37:15;97252.03;;;2.83;54.52
25080;BME280;13071;48.868;9.996;2023-04-04T08:39:42;97255.81;;;3.13;56.95
25080;BME280;13071;48.868;9.996;2023-04-04T08:42:08;97249.38;;;2.88;54.17
25080;BME280;13071;48.868;9.996;2023-04-04T08:44:37;97246.19;;;3.01;54.92
25080;BME280;13071;48.868;9.996;2023-04-04T08:47:06;97248.06;;;2.91;55.50
25080;BME280;13071;48.868;9.996;2023-04-04T08:49:36;97256.56;;;2.78;54.94
25080;BME280;13071;48.868;9.996;2023-04-04T08:52:05;97257.97;;;3.06;54.95
25080;BME280;13071;48.868;9.996;2023-04-04T08:54:35;97243.50;;;2.96;54.11
25080;BME280;13071;48.868;9.996;2023-04-04T08:57:04;97252.28;;;2.72;53.66
25080;BME280;13071;48.868;9.996;2023-04-04T08:59:30;97247.00;;;3.12;54.78
25080;BME280;13071;48.868;9.996;2023-04-04T09:02:13;97243.78;;;3.15;53.64
25080;BME280;13071;48.868;9.996;2023-04-04T09:04:42;97242.69;;;3.31;53.57
25080;BME280;13071;48.868;9.996;2023-04-04T09:07:11;97243.25;;;3.38;53.43
25080;BME280;13071;48.868;9.996;2023-04-04T09:09:41;97245.66;;;2.99;52.54
25080;BME280;13071;48.868;9.996;2023-04-04T09:12:11;97253.41;;;3.36;54.39
25080;BME280;13071;48.868;9.996;2023-04-04T09:14:38;97246.72;;;3.24;52.11
25080;BME280;13071;48.868;9.996;2023-04-04T09:17:06;97249.66;;;3.32;53.18
25080;BME280;13071;48.868;9.996;2023-04-04T09:19:34;97245.38;;;3.36;52.60
25080;BME280;13071;48.868;9.996;2023-04-04T09:22:01;97246.97;;;3.47;52.62
25080;BME280;13071;48.868;9.996;2023-04-04T09:24:37;97231.97;;;3.67;52.17
25080;BME280;13071;48.868;9.996;2023-04-04T09:27:04;97242.44;;;3.38;55.04
25080;BME280;13071;48.868;9.996;2023-04-04T09:29:32;97238.66;;;3.69;51.08
25080;BME280;13071;48.868;9.996;2023-04-04T09:31:59;97242.94;;;3.60;50.57
25080;BME280;13071;48.868;9.996;2023-04-04T09:34:27;97228.47;;;3.66;51.70
25080;BME280;13071;48.868;9.996;2023-04-04T09:36:54;97237.25;;;4.02;50.87
25080;BME280;13071;48.868;9.996;2023-04-04T09:39:22;97243.41;;;3.98;52.83
25080;BME280;13071;48.868;9.996;2023-04-04T09:41:50;97242.34;;;3.99;52.15
25080;BME280;13071;48.868;9.996;2023-04-04T09:44:17;97244.50;;;3.86;51.71
25080;BME280;13071;48.868;9.996;2023-04-04T09:46:44;97234.84;;;3.90;52.33
25080;BME280;13071;48.868;9.996;2023-04-04T09:49:10;97246.38;;;3.91;53.71
25080;BME280;13071;48.868;9.996;2023-04-04T09:51:47;97234.84;;;3.96;51.78
25080;BME280;13071;48.868;9.996;2023-04-04T09:54:19;97239.09;;;4.07;52.79
25080;BME280;13071;48.868;9.996;2023-04-04T09:56:46;97232.41;;;4.09;50.96
25080;BME280;13071;48.868;9.996;2023-04-04T09:59:15;97246.03;;;4.13;54.33
25080;BME280;13071;48.868;9.996;2023-04-04T10:01:43;97247.94;;;4.07;51.32
25080;BME280;13071;48.868;9.996;2023-04-04T10:04:12;97244.19;;;4.08;50.47
25080;BME280;13071;48.868;9.996;2023-04-04T10:06:38;97247.38;;;4.05;48.96
25080;BME280;13071;48.868;9.996;2023-04-04T10:09:07;97243.84;;;4.25;52.41
25080;BME280;13071;48.868;9.996;2023-04-04T10:11:34;97239.69;;;3.88;50.58
25080;BME280;13071;48.868;9.996;2023-04-04T10:14:02;97231.09;;;3.91;51.37
25080;BME280;13071;48.868;9.996;2023-04-04T10:16:32;97235.09;;;4.04;51.42
25080;BME280;13071;48.868;9.996;2023-04-04T10:19:03;97225.59;;;4.32;50.64
25080;BME280;13071;48.868;9.996;2023-04-04T10:21:29;97220.47;;;4.35;48.67
25080;BME280;13071;48.868;9.996;2023-04-04T10:23:57;97235.22;;;4.38;51.03
25080;BME280;13071;48.868;9.996;2023-04-04T10:26:24;97244.63;;;4.30;50.56
25080;BME280;13071;48.868;9.996;2023-04-04T10:28:51;97236.47;;;3.86;51.07
25080;BME280;13071;48.868;9.996;2023-04-04T10:31:21;97228.19;;;3.78;50.94
25080;BME280;13071;48.868;9.996;2023-04-04T10:33:59;97229.06;;;3.53;51.28
25080;BME280;13071;48.868;9.996;2023-04-04T10:36:37;97219.56;;;3.96;50.56
25080;BME280;13071;48.868;9.996;2023-04-04T10:39:10;97236.78;;;4.44;53.74
25080;BME280;13071;48.868;9.996;2023-04-04T10:41:39;97223.78;;;4.17;49.76
25080;BME280;13071;48.868;9.996;2023-04-04T10:44:13;97219.94;;;3.59;50.87
25080;BME280;13071;48.868;9.996;2023-04-04T10:46:45;97230.56;;;3.95;50.80
25080;BME280;13071;48.868;9.996;2023-04-04T10:49:14;97228.06;;;4.23;52.98
25080;BME280;13071;48.868;9.996;2023-04-04T10:51:41;97222.31;;;4.45;53.15
25080;BME280;13071;48.868;9.996;2023-04-04T10:54:08;97227.81;;;4.15;50.46
25080;BME280;13071;48.868;9.996;2023-04-04T10:56:35;97238.25;;;4.16;52.27
25080;BME280;13071;48.868;9.996;2023-04-04T10:59:11;97227.22;;;4.28;51.09
25080;BME280;13071;48.868;9.996;2023-04-04T11:01:48;97230.44;;;4.25;51.61
25080;BME280;13071;48.868;9.996;2023-04-04T11:04:17;97222.44;;;4.20;52.54
25080;BME280;13071;48.868;9.996;2023-04-04T11:07:12;97211.88;;;4.44;50.81
25080;BME280;13071;48.868;9.996;2023-04-04T11:09:51;97210.41;;;4.66;49.79
25080;BME280;13071;48.868;9.996;2023-04-04T11:12:26;97214.69;;;4.67;51.36
25080;BME280;13071;48.868;9.996;2023-04-04T11:14:54;97208.13;;;4.40;53.66
25080;BME280;13071;48.868;9.996;2023-04-04T11:17:39;97213.78;;;3.69;51.26
25080;BME280;13071;48.868;9.996;2023-04-04T11:20:08;97207.81;;;3.92;52.57
25080;BME280;13071;48.868;9.996;2023-04-04T11:22:35;97208.56;;;4.08;51.86
25080;BME280;13071;48.868;9.996;2023-04-04T11:31:23;97211.84;;;5.27;50.62
25080;BME280;13071;48.868;9.996;2023-04-04T11:34:03;97200.19;;;5.41;49.92
25080;BME280;13071;48.868;9.996;2023-04-04T11:36:50;97206.25;;;4.84;49.24
25080;BME280;13071;48.868;9.996;2023-04-04T11:39:23;97197.59;;;5.31;50.67
25080;BME280;13071;48.868;9.996;2023-04-04T11:41:52;97204.13;;;4.81;51.06
25080;BME280;13071;48.868;9.996;2023-04-04T11:44:20;97202.81;;;5.17;51.36
25080;BME280;13071;48.868;9.996;2023-04-04T11:46:47;97195.31;;;5.14;49.74
25080;BME280;13071;48.868;9.996;2023-04-04T11:49:15;97196.16;;;5.10;49.00
25080;BME280;13071;48.868;9.996;2023-04-04T11:51:42;97207.47;;;4.68;50.63
25080;BME280;13071;48.868;9.996;2023-04-04T11:54:14;97200.63;;;4.42;51.71
25080;BME280;13071;48.868;9.996;2023-04-04T11:56:41;97197.31;;;4.60;54.69
25080;BME280;13071;48.868;9.996;2023-04-04T11:59:09;97194.56;;;5.04;52.07
25080;BME280;13071;48.868;9.996;2023-04-04T12:01:36;97197.47;;;5.12;49.60
25080;BME280;13071;48.868;9.996;2023-04-04T12:04:04;97191.81;;;5.14;53.08
25080;BME280;13071;48.868;9.996;2023-04-04T12:06:30;97194.50;;;5.43;53.33
25080;BME280;13071;48.868;9.996;2023-04-04T12:09:00;97188.44;;;4.98;50.30
25080;BME280;13071;48.868;9.996;2023-04-04T12:11:29;97197.84;;;5.30;51.52
25080;BME280;13071;48.868;9.996;2023-04-04T12:13:56;97189.00;;;5.29;47.72
25080;BME280;13071;48.868;9.996;2023-04-04T12:16:23;97190.06;;;5.28;48.70
25080;BME280;13071;48.868;9.996;2023-04-04T12:18:49;97190.28;;;5.65;48.12
25080;BME280;13071;48.868;9.996;2023-04-04T12:21:16;97180.72;;;5.78;48.67
25080;BME280;13071;48.868;9.996;2023-04-04T12:23:42;97189.63;;;5.50;51.85
25080;BME280;13071;48.868;9.996;2023-04-04T12:26:09;97188.31;;;5.47;49.13
25080;BME280;13071;48.868;9.996;2023-04-04T12:28:38;97175.47;;;5.68;50.94
25080;BME280;13071;48.868;9.996;2023-04-04T12:31:05;97181.72;;;5.35;51.82
25080;BME280;13071;48.868;9.996;2023-04-04T12:33:32;97170.25;;;4.56;49.72
25080;BME280;13071;48.868;9.996;2023-04-04T12:36:00;97177.13;;;5.06;53.12
25080;BME280;13071;48.868;9.996;2023-04-04T12:38:28;97160.66;;;5.47;51.37
25080;BME280;13071;48.868;9.996;2023-04-04T12:40:55;97173.94;;;5.62;50.44
25080;BME280;13071;48.868;9.996;2023-04-04T12:43:26;97161.72;;;4.49;49.98
25080;BME280;13071;48.868;9.996;2023-04-04T12:45:56;97163.75;;;5.01;51.47
25080;BME280;13071;48.868;9.996;2023-04-04T12:48:26;97169.97;;;5.26;50.64
25080;BME280;13071;48.868;9.996;2023-04-04T12:50:54;97157.94;;;5.52;48.70
25080;BME280;13071;48.868;9.996;2023-04-04T12:53:23;97158.78;;;5.47;49.84
25080;BME280;13071;48.868;9.996;2023-04-04T12:55:51;97153.00;;;5.59;52.15
25080;BME280;13071;48.868;9.996;2023-04-04T12:58:19;97158.59;;;5.62;49.24
25080;BME280;13071;48.868;9.996;2023-04-04T13:00:50;97156.41;;;5.93;50.87
25080;BME280;13071;48.868;9.996;2023-04-04T13:03:19;97159.78;;;6.04;49.04
25080;BME280;13071;48.868;9.996;2023-04-04T13:05:47;97156.34;;;5.98;50.24
25080;BME280;13071;48.868;9.996;2023-04-04T13:08:14;97151.97;;;6.26;48.16
25080;BME280;13071;48.868;9.996;2023-04-04T13:11:01;97160.53;;;6.28;48.98
25080;BME280;13071;48.868;9.996;2023-04-04T13:13:34;97146.00;;;6.11;48.68
25080;BME280;13071;48.868;9.996;2023-04-04T13:16:01;97147.84;;;5.91;48.00
25080;BME280;13071;48.868;9.996;2023-04-04T13:18:34;97149.22;;;5.89;47.33